sensor_id;sensor_type;location;lat;lon;timestamp;P1;durP1;ratioP1;P2;durP2;ratioP2
70122;SDS011;57489;37.404;24.920;2023-02-15T00:02:36;7.28;;;3.17;;
70122;SDS011;57489;37.404;24.920;2023-02-15T00:07:36;6.80;;;3.10;;
70122;SDS011;57489;37.404;24.920;2023-02-15T00:12:37;5.93;;;3.27;;
70122;SDS011;57489;37.404;24.920;2023-02-15T00:17:37;7.07;;;3.23;;
70122;SDS011;57489;37.404;24.920;2023-02-15T00:22:38;6.43;;;3.33;;
70122;SDS011;57489;37.404;24.920;2023-02-15T00:27:38;6.20;;;2.80;;
70122;SDS011;57489;37.404;24.920;2023-02-15T00:32:38;6.60;;;3.07;;
70122;SDS011;57489;37.404;24.920;2023-02-15T00:37:39;6.13;;;3.13;;
70122;SDS011;57489;37.404;24.920;2023-02-15T00:42:39;7.70;;;3.37;;
70122;SDS011;57489;37.404;24.920;2023-02-15T00:47:40;5.53;;;2.60;;
70122;SDS011;57489;37.404;24.920;2023-02-15T00:52:40;7.03;;;3.93;;
70122;SDS011;57489;37.404;24.920;2023-02-15T00:57:41;6.40;;;3.00;;
70122;SDS011;57489;37.404;24.920;2023-02-15T01:02:41;7.10;;;3.47;;
70122;SDS011;57489;37.404;24.920;2023-02-15T01:07:41;6.03;;;3.07;;
70122;SDS011;57489;37.404;24.920;2023-02-15T01:12:42;6.33;;;2.93;;
70122;SDS011;57489;37.404;24.920;2023-02-15T01:17:42;6.93;;;3.00;;
70122;SDS011;57489;37.404;24.920;2023-02-15T01:22:43;8.20;;;3.33;;
70122;SDS011;57489;37.404;24.920;2023-02-15T01:27:44;6.93;;;3.20;;
70122;SDS011;57489;37.404;24.920;2023-02-15T01:32:45;6.65;;;3.40;;
70122;SDS011;57489;37.404;24.920;2023-02-15T01:37:45;6.93;;;3.40;;
70122;SDS011;57489;37.404;24.920;2023-02-15T01:42:46;8.30;;;4.00;;
70122;SDS011;57489;37.404;24.920;2023-02-15T01:48:02;8.33;;;3.87;;
70122;SDS011;57489;37.404;24.920;2023-02-15T01:58:14;7.95;;;4.07;;
70122;SDS011;57489;37.404;24.920;2023-02-15T02:03:15;8.37;;;4.10;;
70122;SDS011;57489;37.404;24.920;2023-02-15T02:08:15;7.93;;;4.22;;
70122;SDS011;57489;37.404;24.920;2023-02-15T02:13:16;8.33;;;4.63;;
70122;SDS011;57489;37.404;24.920;2023-02-15T02:29:46;7.63;;;3.87;;
70122;SDS011;57489;37.404;24.920;2023-02-15T02:44:58;8.17;;;4.77;;
70122;SDS011;57489;37.404;24.920;2023-02-15T02:50:12;9.17;;;4.80;;
70122;SDS011;57489;37.404;24.920;2023-02-15T02:55:19;8.57;;;4.60;;
70122;SDS011;57489;37.404;24.920;2023-02-15T03:00:21;7.70;;;4.47;;
70122;SDS011;57489;37.404;24.920;2023-02-15T03:05:25;7.83;;;3.80;;
70122;SDS011;57489;37.404;24.920;2023-02-15T03:10:29;9.32;;;4.53;;
70122;SDS011;57489;37.404;24.920;2023-02-15T03:15:31;8.00;;;4.03;;
70122;SDS011;57489;37.404;24.920;2023-02-15T03:20:35;9.35;;;4.82;;
70122;SDS011;57489;37.404;24.920;2023-02-15T03:25:38;8.93;;;4.47;;
70122;SDS011;57489;37.404;24.920;2023-02-15T03:30:42;8.85;;;4.93;;
70122;SDS011;57489;37.404;24.920;2023-02-15T03:35:49;7.63;;;4.30;;
70122;SDS011;57489;37.404;24.920;2023-02-15T03:40:53;8.97;;;4.30;;
70122;SDS011;57489;37.404;24.920;2023-02-15T03:45:57;8.05;;;4.45;;
70122;SDS011;57489;37.404;24.920;2023-02-15T03:51:06;9.00;;;4.70;;
70122;SDS011;57489;37.404;24.920;2023-02-15T03:56:12;10.40;;;4.87;;
70122;SDS011;57489;37.404;24.920;2023-02-15T04:01:22;8.10;;;4.43;;
70122;SDS011;57489;37.404;24.920;2023-02-15T04:06:27;9.53;;;5.03;;
70122;SDS011;57489;37.404;24.920;2023-02-15T04:11:27;8.97;;;4.70;;
70122;SDS011;57489;37.404;24.920;2023-02-15T04:16:28;9.07;;;4.60;;
70122;SDS011;57489;37.404;24.920;2023-02-15T04:21:29;9.93;;;4.67;;
70122;SDS011;57489;37.404;24.920;2023-02-15T04:26:30;10.37;;;4.77;;
70122;SDS011;57489;37.404;24.920;2023-02-15T04:31:31;9.90;;;5.37;;
70122;SDS011;57489;37.404;24.920;2023-02-15T04:36:31;9.17;;;4.50;;
70122;SDS011;57489;37.404;24.920;2023-02-15T04:41:32;8.77;;;4.60;;
70122;SDS011;57489;37.404;24.920;2023-02-15T04:46:34;9.87;;;5.77;;
70122;SDS011;57489;37.404;24.920;2023-02-15T04:51:34;8.90;;;4.73;;
70122;SDS011;57489;37.404;24.920;2023-02-15T04:56:35;9.07;;;4.97;;
70122;SDS011;57489;37.404;24.920;2023-02-15T05:01:35;9.33;;;5.00;;
70122;SDS011;57489;37.404;24.920;2023-02-15T05:06:36;9.20;;;4.90;;
70122;SDS011;57489;37.404;24.920;2023-02-15T05:11:36;9.37;;;5.40;;
70122;SDS011;57489;37.404;24.920;2023-02-15T05:16:37;10.03;;;5.23;;
70122;SDS011;57489;37.404;24.920;2023-02-15T05:21:37;10.20;;;5.00;;
70122;SDS011;57489;37.404;24.920;2023-02-15T05:26:38;12.80;;;5.70;;
70122;SDS011;57489;37.404;24.920;2023-02-15T05:31:38;16.50;;;7.07;;
70122;SDS011;57489;37.404;24.920;2023-02-15T05:36:39;12.73;;;6.15;;
70122;SDS011;57489;37.404;24.920;2023-02-15T05:41:39;10.80;;;6.13;;
70122;SDS011;57489;37.404;24.920;2023-02-15T05:46:40;12.97;;;5.93;;
70122;SDS011;57489;37.404;24.920;2023-02-15T05:51:40;14.23;;;5.80;;
70122;SDS011;57489;37.404;24.920;2023-02-15T05:56:41;13.33;;;6.10;;
70122;SDS011;57489;37.404;24.920;2023-02-15T06:01:41;15.93;;;6.73;;
70122;SDS011;57489;37.404;24.920;2023-02-15T06:06:41;14.60;;;5.83;;
70122;SDS011;57489;37.404;24.920;2023-02-15T06:11:42;13.63;;;6.00;;
70122;SDS011;57489;37.404;24.920;2023-02-15T06:16:42;14.00;;;6.03;;
70122;SDS011;57489;37.404;24.920;2023-02-15T06:21:43;17.02;;;6.13;;
70122;SDS011;57489;37.404;24.920;2023-02-15T06:26:44;16.77;;;6.47;;
70122;SDS011;57489;37.404;24.920;2023-02-15T06:31:44;15.17;;;6.60;;
70122;SDS011;57489;37.404;24.920;2023-02-15T06:36:45;14.23;;;6.17;;
70122;SDS011;57489;37.404;24.920;2023-02-15T06:41:45;12.20;;;6.00;;
70122;SDS011;57489;37.404;24.920;2023-02-15T06:46:46;14.57;;;6.00;;
70122;SDS011;57489;37.404;24.920;2023-02-15T06:51:46;14.90;;;6.73;;
70122;SDS011;57489;37.404;24.920;2023-02-15T06:56:46;12.93;;;5.87;;
70122;SDS011;57489;37.404;24.920;2023-02-15T07:01:47;13.57;;;5.73;;
70122;SDS011;57489;37.404;24.920;2023-02-15T07:06:48;12.57;;;6.30;;
70122;SDS011;57489;37.404;24.920;2023-02-15T07:11:48;15.30;;;6.23;;
70122;SDS011;57489;37.404;24.920;2023-02-15T07:16:48;10.93;;;6.67;;
70122;SDS011;57489;37.404;24.920;2023-02-15T07:21:49;11.82;;;6.35;;
70122;SDS011;57489;37.404;24.920;2023-02-15T07:26:49;12.07;;;5.93;;
70122;SDS011;57489;37.404;24.920;2023-02-15T07:31:50;11.50;;;5.20;;
70122;SDS011;57489;37.404;24.920;2023-02-15T07:36:50;13.63;;;6.40;;
70122;SDS011;57489;37.404;24.920;2023-02-15T07:41:51;11.33;;;5.93;;
70122;SDS011;57489;37.404;24.920;2023-02-15T07:46:51;12.07;;;5.73;;
70122;SDS011;57489;37.404;24.920;2023-02-15T07:51:52;12.30;;;6.30;;
70122;SDS011;57489;37.404;24.920;2023-02-15T07:56:52;10.87;;;5.93;;
70122;SDS011;57489;37.404;24.920;2023-02-15T08:01:53;15.43;;;5.67;;
70122;SDS011;57489;37.404;24.920;2023-02-15T08:06:53;17.93;;;6.30;;
70122;SDS011;57489;37.404;24.920;2023-02-15T08:11:54;14.50;;;6.27;;
70122;SDS011;57489;37.404;24.920;2023-02-15T08:16:55;10.63;;;5.73;;
70122;SDS011;57489;37.404;24.920;2023-02-15T08:21:59;12.10;;;5.78;;
70122;SDS011;57489;37.404;24.920;2023-02-15T08:27:02;12.10;;;5.97;;
70122;SDS011;57489;37.404;24.920;2023-02-15T08:32:04;14.53;;;6.83;;
70122;SDS011;57489;37.404;24.920;2023-02-15T08:37:06;11.18;;;5.95;;
70122;SDS011;57489;37.404;24.920;2023-02-15T08:42:06;21.43;;;7.10;;
70122;SDS011;57489;37.404;24.920;2023-02-15T08:47:07;16.90;;;7.53;;
70122;SDS011;57489;37.404;24.920;2023-02-15T08:52:07;12.55;;;5.85;;
70122;SDS011;57489;37.404;24.920;2023-02-15T08:57:08;17.57;;;6.17;;
70122;SDS011;57489;37.404;24.920;2023-02-15T09:02:09;13.43;;;5.37;;
70122;SDS011;57489;37.404;24.920;2023-02-15T09:07:10;13.77;;;5.27;;
70122;SDS011;57489;37.404;24.920;2023-02-15T09:12:10;14.53;;;6.00;;
70122;SDS011;57489;37.404;24.920;2023-02-15T09:17:11;15.30;;;5.37;;
70122;SDS011;57489;37.404;24.920;2023-02-15T09:22:11;11.03;;;5.47;;
70122;SDS011;57489;37.404;24.920;2023-02-15T09:27:12;13.07;;;5.90;;
70122;SDS011;57489;37.404;24.920;2023-02-15T09:32:13;11.17;;;6.03;;
70122;SDS011;57489;37.404;24.920;2023-02-15T09:37:14;11.73;;;5.65;;
70122;SDS011;57489;37.404;24.920;2023-02-15T10:04:00;12.57;;;5.32;;
70122;SDS011;57489;37.404;24.920;2023-02-15T10:09:14;10.17;;;5.13;;
70122;SDS011;57489;37.404;24.920;2023-02-15T10:14:59;10.30;;;5.95;;
70122;SDS011;57489;37.404;24.920;2023-02-15T10:42:24;10.38;;;5.22;;
70122;SDS011;57489;37.404;24.920;2023-02-15T10:47:41;8.83;;;4.60;;
70122;SDS011;57489;37.404;24.920;2023-02-15T11:04:00;11.43;;;5.03;;
70122;SDS011;57489;37.404;24.920;2023-02-15T11:09:09;7.95;;;4.30;;
70122;SDS011;57489;37.404;24.920;2023-02-15T11:14:15;11.23;;;3.92;;
70122;SDS011;57489;37.404;24.920;2023-02-15T11:19:22;8.53;;;4.67;;
70122;SDS011;57489;37.404;24.920;2023-02-15T11:24:29;9.47;;;4.47;;
70122;SDS011;57489;37.404;24.920;2023-02-15T11:34:38;9.07;;;4.53;;
70122;SDS011;57489;37.404;24.920;2023-02-15T11:39:47;9.97;;;4.27;;
70122;SDS011;57489;37.404;24.920;2023-02-15T11:50:28;8.15;;;3.97;;
70122;SDS011;57489;37.404;24.920;2023-02-15T11:55:31;8.70;;;4.50;;
70122;SDS011;57489;37.404;24.920;2023-02-15T12:00:35;11.75;;;4.13;;
70122;SDS011;57489;37.404;24.920;2023-02-15T12:05:40;11.10;;;4.13;;
70122;SDS011;57489;37.404;24.920;2023-02-15T12:10:45;9.55;;;4.57;;
70122;SDS011;57489;37.404;24.920;2023-02-15T12:15:57;12.23;;;4.72;;
70122;SDS011;57489;37.404;24.920;2023-02-15T12:21:11;23.57;;;7.70;;
70122;SDS011;57489;37.404;24.920;2023-02-15T12:26:14;25.17;;;9.60;;
70122;SDS011;57489;37.404;24.920;2023-02-15T12:31:27;24.17;;;8.32;;
70122;SDS011;57489;37.404;24.920;2023-02-15T12:36:40;41.87;;;14.97;;
70122;SDS011;57489;37.404;24.920;2023-02-15T12:41:43;78.55;;;20.83;;
70122;SDS011;57489;37.404;24.920;2023-02-15T12:47:04;50.40;;;16.25;;
70122;SDS011;57489;37.404;24.920;2023-02-15T12:52:25;45.03;;;13.33;;
70122;SDS011;57489;37.404;24.920;2023-02-15T12:57:32;41.97;;;13.27;;
70122;SDS011;57489;37.404;24.920;2023-02-15T13:07:36;34.92;;;10.95;;
70122;SDS011;57489;37.404;24.920;2023-02-15T13:12:37;32.53;;;10.90;;
70122;SDS011;57489;37.404;24.920;2023-02-15T13:17:38;27.07;;;10.80;;
70122;SDS011;57489;37.404;24.920;2023-02-15T13:22:39;25.17;;;9.40;;
70122;SDS011;57489;37.404;24.920;2023-02-15T13:27:42;25.27;;;8.90;;
70122;SDS011;57489;37.404;24.920;2023-02-15T13:32:44;23.77;;;9.38;;
70122;SDS011;57489;37.404;24.920;2023-02-15T13:54:53;19.02;;;8.55;;
70122;SDS011;57489;37.404;24.920;2023-02-15T14:00:44;16.87;;;7.17;;
70122;SDS011;57489;37.404;24.920;2023-02-15T14:06:10;22.63;;;7.93;;
70122;SDS011;57489;37.404;24.920;2023-02-15T14:11:20;17.38;;;7.55;;
70122;SDS011;57489;37.404;24.920;2023-02-15T14:21:48;15.83;;;6.43;;
70122;SDS011;57489;37.404;24.920;2023-02-15T14:32:29;15.05;;;5.47;;
70122;SDS011;57489;37.404;24.920;2023-02-15T14:37:35;15.07;;;6.10;;
70122;SDS011;57489;37.404;24.920;2023-02-15T14:42:53;12.27;;;6.27;;
70122;SDS011;57489;37.404;24.920;2023-02-15T14:53:42;15.00;;;5.70;;
70122;SDS011;57489;37.404;24.920;2023-02-15T15:03:53;12.80;;;5.77;;
70122;SDS011;57489;37.404;24.920;2023-02-15T15:08:59;11.93;;;5.77;;
70122;SDS011;57489;37.404;24.920;2023-02-15T15:14:10;16.33;;;5.65;;
70122;SDS011;57489;37.404;24.920;2023-02-15T15:19:56;11.77;;;5.00;;
70122;SDS011;57489;37.404;24.920;2023-02-15T15:24:59;12.17;;;5.10;;
70122;SDS011;57489;37.404;24.920;2023-02-15T15:40:48;11.50;;;5.20;;
70122;SDS011;57489;37.404;24.920;2023-02-15T15:46:01;10.57;;;3.90;;
70122;SDS011;57489;37.404;24.920;2023-02-15T15:51:12;10.30;;;4.65;;
70122;SDS011;57489;37.404;24.920;2023-02-15T15:56:25;11.47;;;4.77;;
70122;SDS011;57489;37.404;24.920;2023-02-15T16:01:39;13.23;;;4.93;;
70122;SDS011;57489;37.404;24.920;2023-02-15T16:06:42;10.75;;;4.65;;
70122;SDS011;57489;37.404;24.920;2023-02-15T16:11:43;9.50;;;4.77;;
70122;SDS011;57489;37.404;24.920;2023-02-15T16:16:49;9.77;;;4.32;;
70122;SDS011;57489;37.404;24.920;2023-02-15T16:21:53;11.30;;;5.13;;
70122;SDS011;57489;37.404;24.920;2023-02-15T16:32:37;8.68;;;4.50;;
70122;SDS011;57489;37.404;24.920;2023-02-15T16:37:37;12.73;;;4.27;;
70122;SDS011;57489;37.404;24.920;2023-02-15T16:42:38;12.67;;;4.23;;
70122;SDS011;57489;37.404;24.920;2023-02-15T16:47:43;7.90;;;4.13;;
70122;SDS011;57489;37.404;24.920;2023-02-15T16:52:46;9.60;;;3.35;;
70122;SDS011;57489;37.404;24.920;2023-02-15T16:57:47;9.47;;;4.23;;
70122;SDS011;57489;37.404;24.920;2023-02-15T17:02:58;10.55;;;4.30;;
70122;SDS011;57489;37.404;24.920;2023-02-15T17:08:04;9.27;;;4.10;;
70122;SDS011;57489;37.404;24.920;2023-02-15T17:13:13;9.27;;;3.97;;
70122;SDS011;57489;37.404;24.920;2023-02-15T17:18:18;8.77;;;3.93;;
70122;SDS011;57489;37.404;24.920;2023-02-15T17:23:34;10.60;;;4.22;;
70122;SDS011;57489;37.404;24.920;2023-02-15T17:28:40;7.75;;;4.10;;
70122;SDS011;57489;37.404;24.920;2023-02-15T17:33:52;12.47;;;4.30;;
70122;SDS011;57489;37.404;24.920;2023-02-15T17:39:34;14.73;;;6.27;;
70122;SDS011;57489;37.404;24.920;2023-02-15T17:44:20;18.08;;;10.20;;
70122;SDS011;57489;37.404;24.920;2023-02-15T17:49:24;19.10;;;12.20;;
70122;SDS011;57489;37.404;24.920;2023-02-15T17:54:26;18.00;;;11.27;;
70122;SDS011;57489;37.404;24.920;2023-02-15T17:59:26;19.70;;;11.47;;
70122;SDS011;57489;37.404;24.920;2023-02-15T18:04:27;17.97;;;12.30;;
70122;SDS011;57489;37.404;24.920;2023-02-15T18:09:27;19.13;;;10.93;;
70122;SDS011;57489;37.404;24.920;2023-02-15T18:14:28;16.77;;;10.33;;
70122;SDS011;57489;37.404;24.920;2023-02-15T18:19:28;16.87;;;10.33;;
70122;SDS011;57489;37.404;24.920;2023-02-15T18:24:29;18.52;;;9.50;;
70122;SDS011;57489;37.404;24.920;2023-02-15T18:29:29;16.43;;;9.77;;
70122;SDS011;57489;37.404;24.920;2023-02-15T18:34:33;15.63;;;9.47;;
70122;SDS011;57489;37.404;24.920;2023-02-15T18:39:39;16.30;;;8.70;;
70122;SDS011;57489;37.404;24.920;2023-02-15T18:44:42;17.70;;;8.40;;
70122;SDS011;57489;37.404;24.920;2023-02-15T18:49:42;16.27;;;8.43;;
70122;SDS011;57489;37.404;24.920;2023-02-15T18:54:43;15.00;;;7.90;;
70122;SDS011;57489;37.404;24.920;2023-02-15T18:59:46;14.23;;;7.28;;
70122;SDS011;57489;37.404;24.920;2023-02-15T19:04:46;15.13;;;7.70;;
70122;SDS011;57489;37.404;24.920;2023-02-15T19:09:49;15.43;;;7.47;;
70122;SDS011;57489;37.404;24.920;2023-02-15T19:14:51;14.57;;;7.95;;
70122;SDS011;57489;37.404;24.920;2023-02-15T19:19:52;11.17;;;6.60;;
70122;SDS011;57489;37.404;24.920;2023-02-15T19:24:52;11.00;;;6.43;;
70122;SDS011;57489;37.404;24.920;2023-02-15T19:29:55;15.15;;;6.60;;
70122;SDS011;57489;37.404;24.920;2023-02-15T19:34:58;13.60;;;6.30;;
70122;SDS011;57489;37.404;24.920;2023-02-15T19:39:59;11.90;;;6.13;;
70122;SDS011;57489;37.404;24.920;2023-02-15T19:44:59;12.30;;;6.17;;
70122;SDS011;57489;37.404;24.920;2023-02-15T19:50:00;12.13;;;5.20;;
70122;SDS011;57489;37.404;24.920;2023-02-15T19:55:00;11.40;;;5.80;;
70122;SDS011;57489;37.404;24.920;2023-02-15T20:00:01;11.33;;;5.60;;
70122;SDS011;57489;37.404;24.920;2023-02-15T20:05:01;13.98;;;5.55;;
70122;SDS011;57489;37.404;24.920;2023-02-15T20:10:02;15.67;;;4.93;;
70122;SDS011;57489;37.404;24.920;2023-02-15T20:15:25;10.95;;;5.45;;
70122;SDS011;57489;37.404;24.920;2023-02-15T20:20:26;12.90;;;5.23;;
70122;SDS011;57489;37.404;24.920;2023-02-15T20:25:31;8.77;;;4.85;;
70122;SDS011;57489;37.404;24.920;2023-02-15T20:30:32;10.43;;;4.57;;
70122;SDS011;57489;37.404;24.920;2023-02-15T20:35:32;9.47;;;4.57;;
70122;SDS011;57489;37.404;24.920;2023-02-15T20:40:34;9.40;;;3.87;;
70122;SDS011;57489;37.404;24.920;2023-02-15T20:45:35;7.43;;;3.93;;
70122;SDS011;57489;37.404;24.920;2023-02-15T20:50:35;8.70;;;4.20;;
70122;SDS011;57489;37.404;24.920;2023-02-15T20:55:36;13.17;;;4.23;;
70122;SDS011;57489;37.404;24.920;2023-02-15T21:00:36;7.83;;;4.27;;
70122;SDS011;57489;37.404;24.920;2023-02-15T21:05:36;7.47;;;4.30;;
70122;SDS011;57489;37.404;24.920;2023-02-15T21:10:37;8.57;;;4.50;;
70122;SDS011;57489;37.404;24.920;2023-02-15T21:15:38;8.77;;;3.97;;
70122;SDS011;57489;37.404;24.920;2023-02-15T21:20:39;11.37;;;4.03;;
70122;SDS011;57489;37.404;24.920;2023-02-15T21:25:46;8.30;;;3.60;;
70122;SDS011;57489;37.404;24.920;2023-02-15T21:30:47;9.20;;;4.03;;
70122;SDS011;57489;37.404;24.920;2023-02-15T21:35:50;9.53;;;3.40;;
70122;SDS011;57489;37.404;24.920;2023-02-15T21:40:52;9.82;;;3.67;;
70122;SDS011;57489;37.404;24.920;2023-02-15T21:45:52;6.60;;;3.60;;
70122;SDS011;57489;37.404;24.920;2023-02-15T21:50:53;7.27;;;3.47;;
70122;SDS011;57489;37.404;24.920;2023-02-15T21:55:55;9.30;;;3.95;;
70122;SDS011;57489;37.404;24.920;2023-02-15T22:00:57;7.10;;;3.50;;
70122;SDS011;57489;37.404;24.920;2023-02-15T22:05:59;7.43;;;3.60;;
70122;SDS011;57489;37.404;24.920;2023-02-15T22:10:59;7.27;;;3.20;;
70122;SDS011;57489;37.404;24.920;2023-02-15T22:16:00;6.00;;;3.13;;
70122;SDS011;57489;37.404;24.920;2023-02-15T22:21:02;8.27;;;3.90;;
70122;SDS011;57489;37.404;24.920;2023-02-15T22:26:04;12.00;;;3.73;;
70122;SDS011;57489;37.404;24.920;2023-02-15T22:31:10;7.28;;;3.35;;
70122;SDS011;57489;37.404;24.920;2023-02-15T22:36:20;7.05;;;3.05;;
70122;SDS011;57489;37.404;24.920;2023-02-15T22:41:26;6.30;;;3.17;;
70122;SDS011;57489;37.404;24.920;2023-02-15T22:46:28;6.82;;;3.35;;
70122;SDS011;57489;37.404;24.920;2023-02-15T22:51:29;7.13;;;3.20;;
70122;SDS011;57489;37.404;24.920;2023-02-15T22:56:37;6.90;;;3.23;;
70122;SDS011;57489;37.404;24.920;2023-02-15T23:01:54;8.00;;;3.50;;
70122;SDS011;57489;37.404;24.920;2023-02-15T23:23:48;5.72;;;3.00;;
70122;SDS011;57489;37.404;24.920;2023-02-15T23:28:50;6.57;;;3.23;;
70122;SDS011;57489;37.404;24.920;2023-02-15T23:33:52;7.63;;;2.90;;
70122;SDS011;57489;37.404;24.920;2023-02-15T23:38:54;6.13;;;2.83;;
70122;SDS011;57489;37.404;24.920;2023-02-15T23:43:57;7.07;;;3.00;;
70122;SDS011;57489;37.404;24.920;2023-02-15T23:48:59;6.95;;;2.90;;
70122;SDS011;57489;37.404;24.920;2023-02-15T23:53:59;6.23;;;2.87;;
70122;SDS011;57489;37.404;24.920;2023-02-15T23:59:00;6.43;;;2.87;;
